createdAt,value
2023-10-15T00:01:35.551Z,86.64
2023-10-15T00:04:03.529Z,86.12
2023-10-15T00:06:31.251Z,86.51
2023-10-15T00:08:57.659Z,86.96
2023-10-15T00:11:24.049Z,86.98
2023-10-15T00:13:50.470Z,87.38
2023-10-15T00:16:23.360Z,87.96
2023-10-15T00:18:50.107Z,87.70
2023-10-15T00:21:16.621Z,88.34
2023-10-15T00:23:44.957Z,87.76
2023-10-15T00:26:15.211Z,88.11
2023-10-15T00:28:41.979Z,88.72
2023-10-15T00:31:14.912Z,88.68
2023-10-15T00:33:43.695Z,88.64
2023-10-15T00:36:14.798Z,88.74
2023-10-15T00:38:47.747Z,88.83
2023-10-15T00:41:15.224Z,89.18
2023-10-15T00:43:56.172Z,89.41
2023-10-15T00:46:27.714Z,89.83
2023-10-15T00:49:14.457Z,89.78
2023-10-15T00:51:42.310Z,89.74
2023-10-15T00:54:13.264Z,90.38
2023-10-15T00:56:40.215Z,90.17
2023-10-15T00:59:09.876Z,91.08
2023-10-15T01:01:39.207Z,90.72
2023-10-15T01:04:08.659Z,91.30
2023-10-15T01:06:35.449Z,91.16
2023-10-15T01:09:11.946Z,90.87
2023-10-15T01:11:39.466Z,91.73
2023-10-15T01:14:06.774Z,91.46
2023-10-15T01:16:37.241Z,91.51
2023-10-15T01:19:14.052Z,92.33
2023-10-15T01:21:44.441Z,92.15
2023-10-15T01:24:10.834Z,92.32
2023-10-15T01:26:40.192Z,92.63
2023-10-15T01:29:09.565Z,91.58
2023-10-15T01:31:52.737Z,91.61
2023-10-15T01:34:23.836Z,91.93
2023-10-15T01:36:52.382Z,91.72
2023-10-15T01:39:38.868Z,92.22
2023-10-15T01:42:07.900Z,92.14
2023-10-15T01:44:40.293Z,92.62
2023-10-15T01:47:06.697Z,92.07
2023-10-15T01:49:33.160Z,91.58
2023-10-15T01:52:06.872Z,91.41
2023-10-15T01:54:34.072Z,91.33
2023-10-15T01:57:01.012Z,92.06
2023-10-15T01:59:28.185Z,91.93
2023-10-15T02:01:57.645Z,91.74
2023-10-15T02:04:27.863Z,92.02
2023-10-15T02:06:54.752Z,91.57
2023-10-15T02:09:23.759Z,91.23
2023-10-15T02:11:53.018Z,92.25
2023-10-15T02:14:25.022Z,91.94
2023-10-15T02:16:51.794Z,91.67
2023-10-15T02:19:35.935Z,91.51
2023-10-15T02:22:02.731Z,91.48
2023-10-15T02:24:34.633Z,91.35
2023-10-15T02:27:06.135Z,91.30
2023-10-15T02:29:32.781Z,91.22
2023-10-15T02:32:35.126Z,91.71
2023-10-15T02:35:07.197Z,91.47
2023-10-15T02:37:33.762Z,91.07
2023-10-15T02:40:00.799Z,91.53
2023-10-15T02:42:35.868Z,91.63
2023-10-15T02:45:02.776Z,92.27
2023-10-15T02:47:48.012Z,92.27
2023-10-15T02:50:18.790Z,92.05
2023-10-15T02:52:48.731Z,91.87
2023-10-15T02:55:16.269Z,91.15
2023-10-15T02:57:43.117Z,91.56
2023-10-15T03:00:28.840Z,91.36
2023-10-15T03:02:56.003Z,91.62
2023-10-15T03:05:31.528Z,91.46
2023-10-15T03:08:00.959Z,91.77
2023-10-15T03:10:28.924Z,92.04
2023-10-15T03:12:55.333Z,91.36
2023-10-15T03:15:22.170Z,91.45
2023-10-15T03:17:48.570Z,91.36
2023-10-15T03:20:17.927Z,91.06
2023-10-15T03:22:45.566Z,91.62
2023-10-15T03:25:14.783Z,92.04
2023-10-15T03:27:41.494Z,91.41
2023-10-15T03:30:10.980Z,91.32
2023-10-15T03:32:45.861Z,91.60
2023-10-15T03:35:19.739Z,91.88
2023-10-15T03:37:49.231Z,91.78
2023-10-15T03:40:38.951Z,91.40
2023-10-15T03:43:07.900Z,92.72
2023-10-15T03:45:34.788Z,92.39
2023-10-15T03:48:02.111Z,92.39
2023-10-15T03:50:30.884Z,92.37
2023-10-15T03:52:57.556Z,92.37
2023-10-15T03:55:31.318Z,91.55
2023-10-15T03:58:00.085Z,91.47
2023-10-15T04:00:37.035Z,91.75
2023-10-15T04:03:19.656Z,91.58
2023-10-15T04:06:14.722Z,91.75
2023-10-15T04:08:59.931Z,91.39
2023-10-15T04:11:30.977Z,91.90
2023-10-15T04:14:18.167Z,91.96
2023-10-15T04:16:45.259Z,91.02
2023-10-15T04:19:12.084Z,91.08
2023-10-15T04:21:41.425Z,91.51
2023-10-15T04:24:08.158Z,92.09
2023-10-15T04:26:37.234Z,92.07
2023-10-15T04:29:17.146Z,91.61
2023-10-15T04:31:46.173Z,92.08
2023-10-15T04:34:18.088Z,91.88
2023-10-15T04:36:45.015Z,91.37
2023-10-15T04:39:14.424Z,91.15
2023-10-15T04:41:41.887Z,92.34
2023-10-15T04:44:21.553Z,92.16
2023-10-15T04:46:48.080Z,92.37
2023-10-15T04:49:18.613Z,92.03
2023-10-15T04:51:45.367Z,91.73
2023-10-15T04:54:11.806Z,91.85
2023-10-15T04:56:38.255Z,92.15
2023-10-15T04:59:05.646Z,91.51
2023-10-15T05:01:34.609Z,91.84
2023-10-15T05:04:02.651Z,91.79
2023-10-15T05:06:29.746Z,92.18
2023-10-15T05:08:56.717Z,92.33
2023-10-15T05:11:24.185Z,92.80
2023-10-15T05:13:51.992Z,92.97
2023-10-15T05:16:18.473Z,92.92
2023-10-15T05:18:45.853Z,93.06
2023-10-15T05:21:14.256Z,93.95
2023-10-15T05:23:40.810Z,94.02
2023-10-15T05:26:07.236Z,93.75
2023-10-15T05:28:33.774Z,93.56
2023-10-15T05:31:02.885Z,93.80
2023-10-15T05:33:29.999Z,92.86
2023-10-15T05:35:58.084Z,92.12
2023-10-15T05:38:26.800Z,91.95
2023-10-15T05:40:58.421Z,91.74
2023-10-15T05:43:25.002Z,92.20
2023-10-15T05:45:51.764Z,91.74
2023-10-15T05:48:18.810Z,91.65
2023-10-15T05:50:51.560Z,91.35
2023-10-15T05:53:18.221Z,90.40
2023-10-15T05:55:44.993Z,90.82
2023-10-15T05:58:11.455Z,90.73
2023-10-15T06:00:40.847Z,90.75
2023-10-15T06:03:08.411Z,90.88
2023-10-15T06:05:34.841Z,90.49
2023-10-15T06:08:01.417Z,90.75
2023-10-15T06:10:30.779Z,90.55
2023-10-15T06:12:57.841Z,89.93
2023-10-15T06:15:25.195Z,90.64
2023-10-15T06:17:51.884Z,90.49
2023-10-15T06:20:34.934Z,90.33
2023-10-15T06:23:05.382Z,90.00
2023-10-15T06:25:46.057Z,89.59
2023-10-15T06:28:15.555Z,90.59
2023-10-15T06:30:42.617Z,93.73
2023-10-15T06:33:09.120Z,93.71
2023-10-15T06:35:35.577Z,92.91
2023-10-15T06:38:02.685Z,93.07
2023-10-15T06:40:29.986Z,92.28
2023-10-15T06:43:03.166Z,91.65
2023-10-15T06:45:29.926Z,92.03
2023-10-15T06:47:56.568Z,92.30
2023-10-15T06:50:26.457Z,92.77
2023-10-15T06:52:57.080Z,91.65
2023-10-15T06:55:23.813Z,90.88
2023-10-15T06:57:50.612Z,90.19
2023-10-15T07:00:24.309Z,89.38
2023-10-15T07:02:55.017Z,89.13
2023-10-15T07:05:22.088Z,88.89
2023-10-15T07:07:48.992Z,89.88
2023-10-15T07:10:18.175Z,88.70
2023-10-15T07:12:49.305Z,89.00
2023-10-15T07:15:18.344Z,89.87
2023-10-15T07:17:45.724Z,88.56
2023-10-15T07:20:16.070Z,87.84
2023-10-15T07:22:47.874Z,87.37
2023-10-15T07:25:16.217Z,87.90
2023-10-15T07:27:43.955Z,86.52
2023-10-15T07:30:13.342Z,85.25
2023-10-15T07:32:41.274Z,85.45
2023-10-15T07:35:08.606Z,83.12
2023-10-15T07:37:36.016Z,81.77
2023-10-15T07:40:09.158Z,82.14
2023-10-15T07:42:35.805Z,80.57
2023-10-15T07:45:03.285Z,79.01
2023-10-15T07:47:31.720Z,79.84
2023-10-15T07:50:00.310Z,80.61
2023-10-15T07:52:27.238Z,78.56
2023-10-15T07:54:55.310Z,77.00
2023-10-15T07:57:22.486Z,76.14
2023-10-15T07:59:48.989Z,77.58
2023-10-15T08:02:17.065Z,77.80
2023-10-15T08:04:44.491Z,75.88
2023-10-15T08:07:11.314Z,78.04
2023-10-15T08:09:37.997Z,78.62
2023-10-15T08:12:06.411Z,78.95
2023-10-15T08:14:32.830Z,79.91
2023-10-15T08:17:00.262Z,80.00
2023-10-15T08:19:26.850Z,80.68
2023-10-15T08:21:53.362Z,79.87
2023-10-15T08:24:28.120Z,80.26
2023-10-15T08:26:54.538Z,77.57
2023-10-15T08:29:21.203Z,77.66
2023-10-15T08:31:48.173Z,75.34
2023-10-15T08:34:14.608Z,72.86
2023-10-15T08:36:41.027Z,72.98
2023-10-15T08:39:10.421Z,71.62
2023-10-15T08:41:40.090Z,70.83
2023-10-15T08:44:06.937Z,68.64
2023-10-15T08:46:33.396Z,68.79
2023-10-15T08:48:59.948Z,68.85
2023-10-15T08:51:26.305Z,70.97
2023-10-15T08:53:52.683Z,70.86
2023-10-15T08:56:22.396Z,73.42
2023-10-15T08:58:55.826Z,73.15
2023-10-15T09:01:22.649Z,71.94
2023-10-15T09:03:49.154Z,71.18
2023-10-15T09:06:15.696Z,69.26
2023-10-15T09:08:44.717Z,70.05
2023-10-15T09:11:14.137Z,72.10
2023-10-15T09:13:40.612Z,75.01
2023-10-15T09:16:07.732Z,76.17
2023-10-15T09:18:37.670Z,77.02
2023-10-15T09:21:07.345Z,76.36
2023-10-15T09:23:36.590Z,75.19
2023-10-15T09:26:03.117Z,75.19
2023-10-15T09:28:30.159Z,73.79
2023-10-15T09:31:03.891Z,72.48
2023-10-15T09:33:30.647Z,70.93
2023-10-15T09:35:58.130Z,72.38
2023-10-15T09:38:24.652Z,70.95
2023-10-15T09:40:51.110Z,69.15
2023-10-15T09:43:18.215Z,70.04
2023-10-15T09:45:44.689Z,70.97
2023-10-15T09:48:11.251Z,71.68
2023-10-15T09:50:42.420Z,71.55
2023-10-15T09:53:11.719Z,73.05
2023-10-15T09:55:39.389Z,71.01
2023-10-15T09:58:06.018Z,73.63
2023-10-15T10:00:55.741Z,72.28
2023-10-15T10:03:30.912Z,71.46
2023-10-15T10:06:16.361Z,71.80
2023-10-15T10:09:02.517Z,73.27
2023-10-15T10:11:39.802Z,71.97
2023-10-15T10:14:13.838Z,72.76
2023-10-15T10:16:43.190Z,73.82
2023-10-15T10:19:09.932Z,74.22
2023-10-15T10:21:36.352Z,74.64
2023-10-15T10:24:07.392Z,74.89
2023-10-15T10:26:33.762Z,73.05
2023-10-15T10:29:02.218Z,73.55
2023-10-15T10:31:31.745Z,76.30
2023-10-15T10:33:58.197Z,74.27
2023-10-15T10:36:54.360Z,73.98
2023-10-15T10:39:23.555Z,73.51
2023-10-15T10:41:50.844Z,71.89
2023-10-15T10:44:27.377Z,70.35
2023-10-15T10:46:54.398Z,70.15
2023-10-15T10:49:36.678Z,70.23
2023-10-15T10:52:16.026Z,68.30
2023-10-15T10:54:43.694Z,67.25
2023-10-15T10:57:11.415Z,67.24
2023-10-15T10:59:38.678Z,65.81
2023-10-15T11:02:05.730Z,63.36
2023-10-15T11:04:32.190Z,61.61
2023-10-15T11:06:59.929Z,64.26
2023-10-15T11:09:26.516Z,65.26
2023-10-15T11:11:53.921Z,65.63
2023-10-15T11:14:24.972Z,64.77
2023-10-15T11:16:52.231Z,63.39
2023-10-15T11:19:25.891Z,63.31
2023-10-15T11:21:52.964Z,64.94
2023-10-15T11:24:20.178Z,64.63
2023-10-15T11:26:46.783Z,63.74
2023-10-15T11:29:16.673Z,63.22
2023-10-15T11:31:44.418Z,62.23
2023-10-15T11:34:24.098Z,61.34
2023-10-15T11:36:51.503Z,59.94
2023-10-15T11:39:50.784Z,58.67
2023-10-15T11:42:20.841Z,59.47
2023-10-15T11:44:56.454Z,57.64
2023-10-15T11:47:33.972Z,58.65
2023-10-15T11:50:01.120Z,57.43
2023-10-15T11:52:27.910Z,57.12
2023-10-15T11:54:55.468Z,55.64
2023-10-15T11:57:26.536Z,55.15
2023-10-15T11:59:56.744Z,55.25
2023-10-15T12:02:24.206Z,53.68
2023-10-15T12:04:52.794Z,56.17
2023-10-15T12:07:22.456Z,53.47
2023-10-15T12:09:49.673Z,53.50
2023-10-15T12:12:16.216Z,53.18
2023-10-15T12:14:42.596Z,53.15
2023-10-15T12:17:09.216Z,53.60
2023-10-15T12:19:35.594Z,52.91
2023-10-15T12:22:03.581Z,55.04
2023-10-15T12:24:32.175Z,55.42
2023-10-15T12:26:58.554Z,54.20
2023-10-15T12:29:31.472Z,54.81
2023-10-15T12:31:58.142Z,55.04
2023-10-15T12:34:25.708Z,55.75
2023-10-15T12:36:53.999Z,54.52
2023-10-15T12:39:28.821Z,54.83
2023-10-15T12:41:55.492Z,54.90
2023-10-15T12:44:23.797Z,54.70
2023-10-15T12:46:52.505Z,56.15
2023-10-15T12:49:20.747Z,55.52
2023-10-15T12:51:47.669Z,53.36
2023-10-15T12:54:14.576Z,53.04
2023-10-15T12:56:43.712Z,54.13
2023-10-15T12:59:10.217Z,52.57
2023-10-15T13:01:36.649Z,53.64
2023-10-15T13:04:03.047Z,55.15
2023-10-15T13:06:29.405Z,68.14
2023-10-15T13:08:57.093Z,80.93
2023-10-15T13:11:23.808Z,86.89
2023-10-15T13:13:51.535Z,91.94
2023-10-15T13:16:19.532Z,93.59
2023-10-15T13:18:46.095Z,96.40
2023-10-15T13:21:12.449Z,97.02
2023-10-15T13:23:38.939Z,100.00
2023-10-15T13:26:09.601Z,100.00
2023-10-15T13:28:36.073Z,100.00
2023-10-15T13:31:03.381Z,100.00
2023-10-15T13:33:30.236Z,100.00
2023-10-15T13:35:56.747Z,100.00
2023-10-15T13:38:27.156Z,100.00
2023-10-15T13:40:53.681Z,100.00
2023-10-15T13:43:20.745Z,100.00
2023-10-15T13:45:47.164Z,100.00
2023-10-15T13:48:13.903Z,100.00
2023-10-15T13:50:44.162Z,100.00
2023-10-15T13:53:14.013Z,100.00
2023-10-15T13:55:40.595Z,100.00
2023-10-15T13:58:07.021Z,100.00
2023-10-15T14:00:43.377Z,100.00
2023-10-15T14:03:11.170Z,100.00
2023-10-15T14:05:41.995Z,100.00
2023-10-15T14:08:09.987Z,100.00
2023-10-15T14:10:36.686Z,100.00
2023-10-15T14:13:17.467Z,100.00
2023-10-15T14:15:46.694Z,100.00
2023-10-15T14:18:13.117Z,100.00
2023-10-15T14:20:42.098Z,100.00
2023-10-15T14:23:08.809Z,100.00
2023-10-15T14:25:35.321Z,100.00
2023-10-15T14:28:01.903Z,100.00
2023-10-15T14:30:28.371Z,100.00
2023-10-15T14:32:57.514Z,100.00
2023-10-15T14:35:24.351Z,100.00
2023-10-15T14:37:50.865Z,100.00
2023-10-15T14:40:17.285Z,100.00
2023-10-15T14:42:43.665Z,100.00
2023-10-15T14:45:13.992Z,100.00
2023-10-15T14:47:41.033Z,100.00
2023-10-15T14:50:07.810Z,100.00
2023-10-15T14:52:34.245Z,100.00
2023-10-15T14:55:00.644Z,100.00
2023-10-15T14:57:27.021Z,100.00
2023-10-15T14:59:53.498Z,100.00
2023-10-15T15:02:19.956Z,100.00
2023-10-15T15:04:46.510Z,100.00
2023-10-15T15:07:12.974Z,100.00
2023-10-15T15:09:39.926Z,100.00
2023-10-15T15:12:07.076Z,100.00
2023-10-15T15:14:34.002Z,100.00
2023-10-15T15:17:00.451Z,100.00
2023-10-15T15:19:26.921Z,100.00
2023-10-15T15:21:54.200Z,100.00
2023-10-15T15:24:22.912Z,100.00
2023-10-15T15:26:49.379Z,100.00
2023-10-15T15:29:17.100Z,100.00
2023-10-15T15:31:44.004Z,100.00
2023-10-15T15:34:11.811Z,100.00
2023-10-15T15:36:38.297Z,100.00
2023-10-15T15:39:05.117Z,100.00
2023-10-15T15:41:33.957Z,100.00
2023-10-15T15:44:01.642Z,100.00
2023-10-15T15:46:30.976Z,100.00
2023-10-15T15:48:59.185Z,100.00
2023-10-15T15:51:25.693Z,100.00
2023-10-15T15:53:52.188Z,100.00
2023-10-15T15:56:18.718Z,100.00
2023-10-15T15:58:45.410Z,100.00
2023-10-15T16:01:24.670Z,100.00
2023-10-15T16:04:02.433Z,100.00
2023-10-15T16:06:29.428Z,100.00
2023-10-15T16:08:55.858Z,100.00
2023-10-15T16:11:22.291Z,100.00
2023-10-15T16:13:49.015Z,100.00
2023-10-15T16:16:15.566Z,100.00
2023-10-15T16:18:42.111Z,100.00
2023-10-15T16:21:08.484Z,100.00
2023-10-15T16:23:34.875Z,100.00
2023-10-15T16:26:02.354Z,100.00
2023-10-15T16:28:28.741Z,100.00
2023-10-15T16:30:55.165Z,100.00
2023-10-15T16:33:21.638Z,100.00
2023-10-15T16:35:49.478Z,100.00
2023-10-15T16:38:15.916Z,100.00
2023-10-15T16:40:42.378Z,100.00
2023-10-15T16:43:11.822Z,100.00
2023-10-15T16:45:38.553Z,100.00
2023-10-15T16:48:11.689Z,100.00
2023-10-15T16:50:42.321Z,100.00
2023-10-15T16:53:12.055Z,100.00
2023-10-15T16:55:41.175Z,100.00
2023-10-15T16:58:07.772Z,100.00
2023-10-15T17:00:35.734Z,100.00
2023-10-15T17:03:04.991Z,100.00
2023-10-15T17:05:32.475Z,100.00
2023-10-15T17:07:59.059Z,100.00
2023-10-15T17:10:25.600Z,100.00
2023-10-15T17:12:52.391Z,100.00
2023-10-15T17:15:18.829Z,100.00
2023-10-15T17:17:45.305Z,100.00
2023-10-15T17:20:12.386Z,100.00
2023-10-15T17:22:39.197Z,100.00
2023-10-15T17:25:06.102Z,100.00
2023-10-15T17:27:34.059Z,100.00
2023-10-15T17:30:17.825Z,100.00
2023-10-15T17:32:45.853Z,100.00
2023-10-15T17:35:12.936Z,100.00
2023-10-15T17:37:40.161Z,100.00
2023-10-15T17:40:07.014Z,100.00
2023-10-15T17:42:35.559Z,100.00
2023-10-15T17:45:02.062Z,100.00
2023-10-15T17:47:29.588Z,100.00
2023-10-15T17:49:57.077Z,100.00
2023-10-15T17:52:25.621Z,100.00
2023-10-15T17:54:53.133Z,100.00
2023-10-15T17:57:19.766Z,100.00
2023-10-15T17:59:46.150Z,100.00
2023-10-15T18:02:12.592Z,100.00
2023-10-15T18:04:39.193Z,100.00
2023-10-15T18:07:05.910Z,100.00
2023-10-15T18:09:35.482Z,100.00
2023-10-15T18:12:02.195Z,100.00
2023-10-15T18:14:28.752Z,100.00
2023-10-15T18:16:55.226Z,100.00
2023-10-15T18:19:21.732Z,100.00
2023-10-15T18:21:48.304Z,100.00
2023-10-15T18:24:15.338Z,100.00
2023-10-15T18:26:41.838Z,100.00
2023-10-15T18:29:08.293Z,100.00
2023-10-15T18:31:36.047Z,100.00
2023-10-15T18:34:02.462Z,100.00
2023-10-15T18:36:28.904Z,100.00
2023-10-15T18:38:57.050Z,100.00
2023-10-15T18:41:24.499Z,100.00
2023-10-15T18:43:51.244Z,100.00
2023-10-15T18:46:18.688Z,100.00
2023-10-15T18:48:45.108Z,100.00
2023-10-15T18:51:35.810Z,100.00
2023-10-15T18:54:01.318Z,100.00
2023-10-15T18:56:29.231Z,100.00
2023-10-15T18:58:57.519Z,100.00
2023-10-15T19:01:24.264Z,100.00
2023-10-15T19:03:50.894Z,100.00
2023-10-15T19:06:17.442Z,100.00
2023-10-15T19:08:43.847Z,100.00
2023-10-15T19:11:16.159Z,100.00
2023-10-15T19:13:42.621Z,100.00
2023-10-15T19:16:10.618Z,100.00
2023-10-15T19:18:38.201Z,100.00
2023-10-15T19:21:08.484Z,100.00
2023-10-15T19:23:34.933Z,100.00
2023-10-15T19:26:04.946Z,100.00
2023-10-15T19:28:31.349Z,100.00
2023-10-15T19:30:57.745Z,100.00
2023-10-15T19:33:29.940Z,100.00
2023-10-15T19:35:56.817Z,100.00
2023-10-15T19:38:23.271Z,100.00
2023-10-15T19:40:50.228Z,100.00
2023-10-15T19:43:20.257Z,100.00
2023-10-15T19:45:47.778Z,100.00
2023-10-15T19:48:15.011Z,100.00
2023-10-15T19:50:41.656Z,100.00
2023-10-15T19:53:08.940Z,100.00
2023-10-15T19:55:35.750Z,100.00
2023-10-15T19:58:04.607Z,100.00
2023-10-15T20:00:44.748Z,100.00
2023-10-15T20:03:13.171Z,100.00
2023-10-15T20:05:40.344Z,100.00
2023-10-15T20:08:06.877Z,100.00
2023-10-15T20:10:35.122Z,100.00
2023-10-15T20:13:01.860Z,100.00
2023-10-15T20:18:56.460Z,100.00
2023-10-15T20:21:22.981Z,100.00
2023-10-15T20:23:56.284Z,100.00
2023-10-15T20:26:23.389Z,100.00
2023-10-15T20:28:50.224Z,100.00
2023-10-15T20:31:16.760Z,100.00
2023-10-15T20:33:43.840Z,100.00
2023-10-15T20:36:10.357Z,100.00
2023-10-15T20:38:36.871Z,100.00
2023-10-15T20:41:03.796Z,100.00
2023-10-15T20:43:30.179Z,100.00
2023-10-15T20:45:56.721Z,100.00
2023-10-15T20:48:23.407Z,100.00
2023-10-15T20:50:49.959Z,100.00
2023-10-15T20:53:17.292Z,100.00
2023-10-15T20:55:44.529Z,100.00
2023-10-15T20:58:11.159Z,100.00
2023-10-15T21:00:38.070Z,100.00
2023-10-15T21:03:06.164Z,100.00
2023-10-15T21:05:32.775Z,100.00
2023-10-15T21:07:59.408Z,100.00
2023-10-15T21:10:25.848Z,100.00
2023-10-15T21:12:53.321Z,100.00
2023-10-15T21:15:19.803Z,100.00
2023-10-15T21:17:46.348Z,100.00
2023-10-15T21:20:12.821Z,100.00
2023-10-15T21:22:40.370Z,100.00
2023-10-15T21:25:10.412Z,100.00
2023-10-15T21:27:38.274Z,100.00
2023-10-15T21:30:08.295Z,100.00
2023-10-15T21:32:35.070Z,100.00
2023-10-15T21:35:01.935Z,100.00
2023-10-15T21:37:28.514Z,100.00
2023-10-15T21:39:54.952Z,100.00
2023-10-15T21:42:21.757Z,100.00
2023-10-15T21:44:48.275Z,100.00
2023-10-15T21:47:14.682Z,100.00
2023-10-15T21:49:41.979Z,100.00
2023-10-15T21:52:09.068Z,100.00
2023-10-15T21:54:35.820Z,100.00
2023-10-15T21:57:02.256Z,100.00
2023-10-15T21:59:28.708Z,100.00
2023-10-15T22:01:55.079Z,100.00
2023-10-15T22:04:21.420Z,100.00
2023-10-15T22:06:47.872Z,100.00
2023-10-15T22:09:14.404Z,100.00
2023-10-15T22:11:40.817Z,100.00
2023-10-15T22:14:10.213Z,100.00
2023-10-15T22:16:36.755Z,100.00
2023-10-15T22:19:06.688Z,100.00
2023-10-15T22:21:33.876Z,100.00
2023-10-15T22:24:00.588Z,100.00
2023-10-15T22:26:27.192Z,100.00
2023-10-15T22:29:00.225Z,100.00
2023-10-15T22:31:27.706Z,100.00
2023-10-15T22:33:54.197Z,100.00
2023-10-15T22:36:21.175Z,100.00
2023-10-15T22:38:47.729Z,100.00
2023-10-15T22:41:14.233Z,100.00
2023-10-15T22:43:40.620Z,100.00
2023-10-15T22:46:08.086Z,100.00
2023-10-15T22:48:35.307Z,100.00
2023-10-15T22:51:01.878Z,100.00
2023-10-15T22:53:28.306Z,100.00
2023-10-15T22:55:54.665Z,100.00
2023-10-15T22:58:21.191Z,100.00
2023-10-15T23:00:51.404Z,100.00
2023-10-15T23:03:19.155Z,100.00
2023-10-15T23:05:45.731Z,100.00
2023-10-15T23:08:12.187Z,100.00
2023-10-15T23:10:41.529Z,100.00
2023-10-15T23:13:08.682Z,100.00
2023-10-15T23:15:39.624Z,100.00
2023-10-15T23:18:09.403Z,100.00
2023-10-15T23:20:36.934Z,100.00
2023-10-15T23:23:06.864Z,100.00
2023-10-15T23:25:35.573Z,100.00
2023-10-15T23:28:14.081Z,100.00
2023-10-15T23:30:45.690Z,100.00
2023-10-15T23:33:12.458Z,100.00
2023-10-15T23:35:39.275Z,100.00
2023-10-15T23:38:08.412Z,100.00
2023-10-15T23:40:35.686Z,100.00
2023-10-15T23:43:05.991Z,100.00
2023-10-15T23:45:32.601Z,100.00
2023-10-15T23:48:08.597Z,100.00
2023-10-15T23:50:37.423Z,100.00
2023-10-15T23:53:05.184Z,100.00
2023-10-15T23:55:38.107Z,100.00
2023-10-15T23:58:05.056Z,100.00
